Terminal Aerodrome Forecast
Issued by NWS Green Bay, WI

Home | Current Version | Previous Version | Text Only | Print | Product List | Glossary Off
Versions: 1 2 3 4 5 6 7 8 9 10 11 12 13 14 15 16 17 18 19 20 21 22 23 24 25 26 27 28

000
FTUS43 KGRB 231728
TAFGRB
TAF
KGRB 231728Z 2318/2418 32004KT P6SM OVC010
     FM232300 32004KT 5SM BR BKN008
     FM240300 32003KT 4SM BR OVC006
     FM240700 31002KT 2SM BR BKN004
      TEMPO 2409/2413 3/4SM BR BKN003
     FM241400 32003KT 3SM BR OVC004
     FM241600 32004KT P6SM BKN008=

USA.gov is the U.S. government's official web portal to all federal, state and local government web resources and services.